Time;durP1;ratioP1;P1;durP2;ratioP2;P2;SDS_P1;SDS_P2;PMS_P1;PMS_P2;Temp;Humidity;BMP_temperature;BMP_pressure;BME280_temperature;BME280_humidity;BME280_pressure;Samples;Min_cycle;Max_cycle;Signal;HPM_P1;HPM_P2
2022/03/27 00:01:55;;;;;;;52.72;28.83;;;10.30;65.40;;;;;;5034242;28;20045;-90
2022/03/27 00:04:23;;;;;;;48.78;28.50;;;10.30;65.50;;;;;;5033321;28;20045;-91
2022/03/27 00:06:50;;;;;;;48.75;28.63;;;10.30;65.50;;;;;;5033745;28;20110;-92
2022/03/27 00:09:17;;;;;;;50.92;29.90;;;10.30;65.50;;;;;;5033961;28;20049;-90
2022/03/27 00:11:43;;;;;;;50.30;28.42;;;10.30;65.60;;;;;;5034069;28;20068;-91
2022/03/27 00:14:10;;;;;;;47.00;28.48;;;10.30;65.70;;;;;;5017320;28;20045;-92
2022/03/27 00:16:37;;;;;;;48.03;28.13;;;10.20;65.70;;;;;;5034599;28;20049;-93
2022/03/27 00:19:04;;;;;;;48.00;29.35;;;10.20;65.80;;;;;;5033626;28;20093;-90
2022/03/27 00:21:31;;;;;;;47.78;29.83;;;10.20;65.90;;;;;;5033818;28;20045;-90
2022/03/27 00:23:59;;;;;;;48.40;29.35;;;10.20;65.90;;;;;;5016121;28;20042;-89
2022/03/27 00:26:27;;;;;;;48.22;28.33;;;10.20;66.00;;;;;;5033730;28;20046;-91
2022/03/27 00:28:54;;;;;;;48.72;28.83;;;10.20;66.10;;;;;;5033786;28;20045;-90
2022/03/27 00:31:21;;;;;;;46.58;29.38;;;10.20;66.10;;;;;;5032979;28;20041;-91
2022/03/27 00:33:48;;;;;;;47.30;28.95;;;10.20;66.20;;;;;;5030037;28;20046;-90
2022/03/27 00:36:16;;;;;;;51.92;29.73;;;10.20;66.20;;;;;;5033707;28;20457;-91
2022/03/27 00:38:46;;;;;;;46.72;28.55;;;10.10;66.20;;;;;;5033603;28;20041;-89
2022/03/27 00:41:14;;;;;;;50.40;29.63;;;10.10;66.30;;;;;;5033559;28;20524;-90
2022/03/27 00:43:41;;;;;;;49.97;29.45;;;10.10;66.30;;;;;;5033247;28;20799;-89
2022/03/27 00:46:09;;;;;;;44.97;27.17;;;10.10;66.40;;;;;;5015302;28;20095;-89
2022/03/27 00:48:37;;;;;;;49.20;30.00;;;10.00;66.40;;;;;;5033485;28;20129;-90
2022/03/27 00:51:04;;;;;;;48.65;29.25;;;10.00;66.40;;;;;;5032427;28;20054;-90
2022/03/27 00:53:31;;;;;;;44.80;28.67;;;10.00;66.50;;;;;;5017265;28;20502;-89
2022/03/27 00:55:58;;;;;;;45.83;27.70;;;10.00;66.50;;;;;;5015841;28;20049;-90
2022/03/27 00:58:26;;;;;;;46.30;29.17;;;9.90;66.60;;;;;;5032918;28;20058;-90
2022/03/27 01:01:03;;;;;;;47.05;26.67;;;10.00;66.60;;;;;;5015248;28;20061;-89
2022/03/27 01:03:31;;;;;;;46.35;28.23;;;9.90;66.70;;;;;;5034672;28;20521;-90
2022/03/27 01:05:59;;;;;;;49.05;28.30;;;9.90;66.70;;;;;;5048798;28;20045;-89
2022/03/27 01:11:21;;;;;;;44.60;27.17;;;9.90;66.80;;;;;;5033178;28;20042;-91
2022/03/27 01:13:58;;;;;;;44.72;28.77;;;9.90;66.90;;;;;;5018174;28;20056;-91
2022/03/27 01:16:36;;;;;;;45.80;28.05;;;9.90;67.00;;;;;;5015443;28;20522;-90
2022/03/27 01:19:04;;;;;;;43.67;26.75;;;9.80;67.00;;;;;;5030545;28;20060;-90
2022/03/27 01:21:34;;;;;;;46.80;28.42;;;9.80;67.10;;;;;;5015758;28;20061;-89
2022/03/27 01:24:02;;;;;;;42.78;27.42;;;9.80;67.10;;;;;;5033013;28;20049;-90
2022/03/27 01:26:29;;;;;;;43.22;27.88;;;9.70;67.20;;;;;;5032836;28;20111;-90
2022/03/27 01:28:56;;;;;;;41.42;28.17;;;9.70;67.30;;;;;;5033342;28;20418;-91
2022/03/27 01:31:23;;;;;;;44.95;28.15;;;9.70;67.30;;;;;;5032310;28;20095;-89
2022/03/27 01:33:51;;;;;;;42.95;27.55;;;9.60;67.40;;;;;;5032668;28;20077;-89
2022/03/27 01:36:22;;;;;;;44.05;28.02;;;9.60;67.50;;;;;;5032936;28;20046;-90
2022/03/27 01:38:54;;;;;;;43.80;27.58;;;9.60;67.50;;;;;;5032786;28;20046;-90
2022/03/27 01:41:21;;;;;;;43.80;27.58;;;9.60;67.60;;;;;;5034339;28;20115;-89
2022/03/27 01:43:48;;;;;;;38.65;25.52;;;9.50;67.60;;;;;;5015421;28;20048;-89
2022/03/27 01:46:16;;;;;;;42.25;27.65;;;9.50;67.70;;;;;;5032242;28;20053;-89
2022/03/27 01:48:43;;;;;;;42.95;28.02;;;9.50;67.70;;;;;;5032644;28;20580;-89
2022/03/27 01:51:10;;;;;;;40.00;26.35;;;9.40;67.80;;;;;;5032795;28;20041;-90
2022/03/27 01:53:39;;;;;;;43.72;28.40;;;9.50;67.80;;;;;;5032942;28;20099;-89
2022/03/27 01:56:07;;;;;;;40.63;26.75;;;9.40;67.90;;;;;;5034131;28;20052;-89
2022/03/27 01:58:42;;;;;;;41.42;28.42;;;9.40;67.90;;;;;;5032757;28;20065;-89
2022/03/27 02:01:09;;;;;;;42.80;27.38;;;9.40;68.00;;;;;;5014724;28;20085;-89
2022/03/27 02:03:36;;;;;;;41.22;27.08;;;9.40;68.00;;;;;;5036294;28;20056;-91
2022/03/27 02:06:06;;;;;;;39.83;27.63;;;9.40;68.10;;;;;;5036326;28;20095;-88
2022/03/27 02:08:34;;;;;;;47.40;26.73;;;9.30;68.10;;;;;;5036053;28;20099;-91
2022/03/27 02:11:05;;;;;;;37.25;27.23;;;9.30;68.20;;;;;;5018970;28;20053;-89
2022/03/27 02:13:32;;;;;;;40.17;26.52;;;9.30;68.20;;;;;;5036323;28;20103;-89
2022/03/27 02:15:59;;;;;;;40.95;26.70;;;9.20;68.30;;;;;;5035549;28;20057;-90
2022/03/27 02:18:28;;;;;;;47.17;27.27;;;9.20;68.30;;;;;;5036159;28;20060;-89
2022/03/27 02:20:56;;;;;;;42.85;28.00;;;9.20;68.40;;;;;;5036171;28;20053;-89
2022/03/27 02:23:24;;;;;;;43.47;26.95;;;9.20;68.40;;;;;;5035795;28;20045;-89
2022/03/27 02:25:52;;;;;;;38.63;27.20;;;9.10;68.40;;;;;;5036014;28;20045;-89
2022/03/27 02:28:19;;;;;;;41.50;27.60;;;9.10;68.50;;;;;;5035212;28;20050;-89
2022/03/27 02:30:47;;;;;;;37.92;27.38;;;9.20;68.50;;;;;;5018465;28;20061;-90
2022/03/27 02:33:14;;;;;;;41.03;27.98;;;9.10;68.60;;;;;;5035812;28;20099;-89
2022/03/27 02:35:41;;;;;;;43.30;26.50;;;9.10;68.60;;;;;;5036011;28;20042;-89
2022/03/27 02:38:08;;;;;;;42.65;28.27;;;9.00;68.70;;;;;;5035443;28;20045;-90
2022/03/27 02:40:40;;;;;;;44.00;26.40;;;9.00;68.70;;;;;;5035907;28;20060;-90
2022/03/27 02:43:09;;;;;;;40.42;27.63;;;9.00;68.70;;;;;;5034895;28;20266;-90
2022/03/27 02:45:37;;;;;;;40.03;28.13;;;9.00;68.80;;;;;;5035562;28;20468;-90
2022/03/27 02:48:04;;;;;;;43.55;28.00;;;8.90;68.90;;;;;;5035415;28;20123;-90
2022/03/27 02:50:31;;;;;;;42.90;28.58;;;8.90;68.90;;;;;;5035624;28;20165;-89
2022/03/27 02:52:59;;;;;;;43.33;28.60;;;8.90;69.00;;;;;;5035364;28;20461;-89
2022/03/27 02:55:26;;;;;;;41.70;28.23;;;8.90;69.10;;;;;;5034939;28;20490;-90
2022/03/27 02:57:54;;;;;;;41.53;27.52;;;8.90;69.10;;;;;;5019198;28;20062;-88
2022/03/27 03:00:21;;;;;;;37.40;27.00;;;8.90;69.20;;;;;;5017763;28;20050;-89
2022/03/27 03:02:48;;;;;;;40.13;27.45;;;8.90;69.30;;;;;;5017730;28;20073;-88
2022/03/27 03:05:17;;;;;;;40.63;27.38;;;8.80;69.30;;;;;;5035221;28;20236;-90
2022/03/27 03:07:44;;;;;;;40.45;27.02;;;8.80;69.40;;;;;;5018157;28;20064;-88
2022/03/27 03:10:14;;;;;;;42.55;27.88;;;8.80;69.50;;;;;;5034696;28;20053;-89
2022/03/27 03:12:41;;;;;;;41.13;27.88;;;8.70;69.60;;;;;;5034840;28;20498;-89
2022/03/27 03:15:09;;;;;;;40.13;27.05;;;8.70;69.70;;;;;;5017461;28;20135;-88
2022/03/27 03:17:37;;;;;;;36.50;27.05;;;8.70;69.80;;;;;;5017616;28;20056;-89
2022/03/27 03:20:05;;;;;;;42.33;27.63;;;8.70;69.90;;;;;;5017736;28;20134;-89
2022/03/27 03:22:32;;;;;;;39.90;28.17;;;8.70;70.00;;;;;;5034785;28;20461;-88
2022/03/27 03:24:59;;;;;;;39.60;27.13;;;8.70;70.00;;;;;;5034021;28;20141;-89
2022/03/27 03:27:26;;;;;;;41.78;27.50;;;8.70;70.10;;;;;;5017264;28;20469;-90
2022/03/27 03:29:54;;;;;;;36.45;26.83;;;8.70;70.20;;;;;;5034638;28;20045;-88
2022/03/27 03:32:23;;;;;;;40.53;26.95;;;8.70;70.30;;;;;;5017370;28;20041;-89
2022/03/27 03:34:51;;;;;;;38.80;27.98;;;8.60;70.30;;;;;;5017325;28;20513;-89
2022/03/27 03:37:18;;;;;;;40.10;28.52;;;8.60;70.40;;;;;;5032376;28;20103;-89
2022/03/27 03:39:46;;;;;;;37.47;27.23;;;8.60;70.50;;;;;;5034944;28;20123;-88
2022/03/27 03:42:14;;;;;;;42.10;28.48;;;8.60;70.50;;;;;;5017046;28;20049;-88
2022/03/27 03:44:42;;;;;;;40.28;27.27;;;8.60;70.60;;;;;;5034420;28;20052;-90
2022/03/27 03:47:10;;;;;;;38.72;27.20;;;8.60;70.60;;;;;;5017326;28;20053;-89
2022/03/27 03:49:38;;;;;;;39.80;27.10;;;8.60;70.70;;;;;;5033472;28;20428;-90
2022/03/27 03:52:06;;;;;;;37.80;26.95;;;8.50;70.70;;;;;;5033175;28;20340;-89
2022/03/27 03:54:37;;;;;;;42.40;26.90;;;8.50;70.80;;;;;;5016782;28;20406;-89
2022/03/27 03:57:05;;;;;;;40.40;26.83;;;8.50;70.80;;;;;;5034421;28;20072;-89
2022/03/27 03:59:33;;;;;;;41.13;27.33;;;8.50;70.90;;;;;;5034040;28;20119;-88
2022/03/27 04:02:00;;;;;;;34.47;26.33;;;8.50;70.90;;;;;;5018048;28;20124;-89
2022/03/27 04:04:30;;;;;;;35.85;26.42;;;8.50;70.90;;;;;;5032813;28;20053;-89
2022/03/27 04:06:57;;;;;;;36.30;26.35;;;8.50;71.00;;;;;;5013931;28;20484;-89
2022/03/27 04:09:24;;;;;;;37.30;26.50;;;8.40;71.00;;;;;;5016616;28;20052;-88
2022/03/27 04:11:51;;;;;;;35.95;24.67;;;8.40;71.00;;;;;;5033873;28;20037;-89
2022/03/27 04:14:19;;;;;;;34.80;26.08;;;8.40;71.00;;;;;;5016344;28;20052;-89
2022/03/27 04:16:46;;;;;;;37.25;25.25;;;8.40;71.00;;;;;;5016452;28;20053;-89
2022/03/27 04:19:13;;;;;;;36.00;25.75;;;8.40;71.00;;;;;;5015301;28;20050;-89
2022/03/27 04:21:41;;;;;;;37.80;26.23;;;8.40;71.10;;;;;;5017819;28;20520;-88
2022/03/27 04:24:09;;;;;;;33.25;24.67;;;8.40;71.10;;;;;;5015967;28;20049;-89
2022/03/27 04:26:39;;;;;;;35.20;24.38;;;8.40;71.10;;;;;;5033619;28;20049;-89
2022/03/27 04:29:06;;;;;;;35.60;24.90;;;8.30;71.10;;;;;;5033826;28;20738;-88
2022/03/27 04:31:33;;;;;;;35.67;24.40;;;8.30;71.10;;;;;;5033780;28;20057;-89
2022/03/27 04:34:00;;;;;;;37.75;25.65;;;8.30;71.10;;;;;;5033929;28;20128;-88
2022/03/27 04:36:26;;;;;;;35.00;25.65;;;8.30;71.10;;;;;;5016372;28;20111;-89
2022/03/27 04:38:55;;;;;;;34.53;24.58;;;8.30;71.10;;;;;;5016035;28;20058;-89
2022/03/27 04:41:22;;;;;;;35.25;25.58;;;8.30;71.20;;;;;;5016249;28;20050;-89
2022/03/27 04:43:49;;;;;;;35.38;24.25;;;8.30;71.20;;;;;;5016004;28;20037;-88
2022/03/27 04:46:17;;;;;;;34.83;25.05;;;8.30;71.20;;;;;;5031241;28;20533;-89
2022/03/27 04:48:45;;;;;;;32.50;24.05;;;8.20;71.20;;;;;;5032710;28;20049;-90
2022/03/27 04:51:12;;;;;;;34.42;24.33;;;8.20;71.20;;;;;;5015760;28;20045;-90
2022/03/27 04:53:39;;;;;;;31.95;24.15;;;8.20;71.30;;;;;;5033186;28;20045;-89
2022/03/27 04:56:07;;;;;;;30.83;23.73;;;8.20;71.30;;;;;;5015736;28;20056;-91
2022/03/27 04:58:35;;;;;;;33.00;24.63;;;8.10;71.30;;;;;;5015740;28;20560;-89
2022/03/27 05:01:03;;;;;;;31.17;23.35;;;8.10;71.30;;;;;;5032446;28;20057;-89
2022/03/27 05:03:30;;;;;;;34.85;24.98;;;8.10;71.40;;;;;;5015304;28;20049;-89
2022/03/27 05:05:57;;;;;;;34.28;23.77;;;8.10;71.40;;;;;;5015453;28;20128;-89
2022/03/27 05:08:25;;;;;;;33.05;23.60;;;8.10;71.40;;;;;;5015551;28;20065;-90
2022/03/27 05:10:52;;;;;;;35.35;25.42;;;8.00;71.40;;;;;;5033268;28;20049;-89
2022/03/27 05:13:19;;;;;;;34.17;23.73;;;8.00;71.40;;;;;;5014907;28;20049;-89
2022/03/27 05:15:48;;;;;;;33.58;24.85;;;8.00;71.40;;;;;;5033433;28;20060;-90
2022/03/27 05:18:15;;;;;;;34.25;24.48;;;8.00;71.40;;;;;;5032728;28;20140;-90
2022/03/27 05:20:42;;;;;;;32.90;23.48;;;8.00;71.40;;;;;;5033143;28;20045;-89
2022/03/27 05:23:09;;;;;;;35.28;25.00;;;8.00;71.50;;;;;;5015683;28;20045;-90
2022/03/27 05:25:45;;;;;;;35.30;25.27;;;7.90;71.50;;;;;;5015584;28;20041;-89
2022/03/27 05:28:16;;;;;;;36.60;25.48;;;7.90;71.50;;;;;;5028343;28;20058;-89
2022/03/27 05:30:43;;;;;;;33.78;24.33;;;7.90;71.60;;;;;;5032577;28;20108;-89
2022/03/27 05:33:10;;;;;;;35.80;24.48;;;7.90;71.60;;;;;;5015057;28;20042;-89
2022/03/27 05:35:38;;;;;;;33.55;24.30;;;7.90;71.70;;;;;;5033005;28;20131;-91
2022/03/27 05:38:05;;;;;;;34.58;23.35;;;7.90;71.70;;;;;;5036432;28;20590;-90
2022/03/27 05:40:32;;;;;;;31.08;23.42;;;7.90;71.70;;;;;;5036817;28;20049;-90
2022/03/27 05:43:00;;;;;;;32.45;24.13;;;7.80;71.80;;;;;;5018419;28;20049;-90
2022/03/27 05:45:27;;;;;;;35.92;24.05;;;7.80;71.80;;;;;;5051976;28;20050;-90
2022/03/27 05:47:54;;;;;;;34.95;25.17;;;7.70;71.80;;;;;;5036225;28;20429;-90
2022/03/27 05:50:23;;;;;;;35.30;24.40;;;7.80;71.90;;;;;;5019155;28;20041;-89
2022/03/27 05:52:52;;;;;;;33.92;24.65;;;7.80;71.90;;;;;;5019239;28;20136;-90
2022/03/27 05:55:20;;;;;;;34.08;24.33;;;7.70;71.90;;;;;;5018075;28;20498;-89
2022/03/27 05:57:47;;;;;;;32.20;23.50;;;7.70;71.90;;;;;;5036673;28;20053;-89
2022/03/27 06:00:20;;;;;;;33.55;24.73;;;7.70;71.90;;;;;;5018956;28;20111;-90
2022/03/27 06:02:49;;;;;;;33.25;24.80;;;7.70;72.00;;;;;;5036313;28;20107;-90
2022/03/27 06:05:22;;;;;;;33.20;24.23;;;7.70;72.00;;;;;;5018864;28;20057;-89
2022/03/27 06:07:53;;;;;;;34.72;23.88;;;7.70;72.00;;;;;;5021670;28;20129;-90
2022/03/27 06:10:26;;;;;;;35.22;24.25;;;7.70;72.10;;;;;;5035648;28;20049;-89
2022/03/27 06:12:53;;;;;;;33.33;23.83;;;7.60;72.10;;;;;;5037461;28;20053;-89
2022/03/27 06:15:21;;;;;;;36.38;24.35;;;7.70;72.10;;;;;;5035888;28;20060;-90
2022/03/27 06:17:50;;;;;;;35.10;24.25;;;7.70;72.10;;;;;;5036328;28;20460;-89
2022/03/27 06:20:19;;;;;;;32.47;23.40;;;7.60;72.20;;;;;;5036038;28;20049;-89
2022/03/27 06:22:46;;;;;;;32.88;24.00;;;7.60;72.20;;;;;;5020678;28;20120;-89
2022/03/27 06:25:20;;;;;;;32.55;24.85;;;7.60;72.20;;;;;;5035224;28;20107;-90
2022/03/27 06:27:48;;;;;;;31.98;23.98;;;7.70;72.30;;;;;;5036306;28;20057;-90
2022/03/27 06:30:18;;;;;;;34.65;23.67;;;7.60;72.30;;;;;;5035597;28;20119;-89
2022/03/27 06:32:46;;;;;;;32.83;23.85;;;7.60;72.40;;;;;;5035782;28;20534;-90
2022/03/27 06:35:15;;;;;;;38.70;24.33;;;7.60;72.40;;;;;;5035857;28;20045;-89
2022/03/27 06:37:43;;;;;;;34.40;24.50;;;7.60;72.50;;;;;;5035804;28;20045;-90
2022/03/27 06:40:12;;;;;;;30.63;23.35;;;7.70;72.50;;;;;;5030696;28;20061;-89
2022/03/27 06:42:41;;;;;;;36.10;25.65;;;7.70;72.60;;;;;;5035670;28;20053;-90
2022/03/27 06:45:10;;;;;;;34.22;25.63;;;7.70;72.70;;;;;;5035086;28;20045;-89
2022/03/27 06:47:38;;;;;;;34.00;24.75;;;7.70;72.80;;;;;;5050138;28;20068;-89
2022/03/27 06:50:06;;;;;;;37.53;25.50;;;7.70;72.90;;;;;;5035211;28;20049;-89
2022/03/27 06:52:35;;;;;;;35.55;25.40;;;7.70;73.10;;;;;;5034374;28;20076;-90
2022/03/27 06:55:04;;;;;;;37.03;26.83;;;7.70;73.20;;;;;;5034631;28;20057;-90
2022/03/27 06:57:33;;;;;;;33.72;25.25;;;7.70;73.30;;;;;;5035214;28;20049;-89
2022/03/27 07:03:06;;;;;;;36.17;25.85;;;7.90;73.60;;;;;;5035167;28;20041;-89
2022/03/27 07:05:41;;;;;;;34.17;25.33;;;7.80;73.70;;;;;;5035105;28;20140;-89
2022/03/27 07:08:15;;;;;;;34.53;26.58;;;7.90;73.80;;;;;;5035293;28;20045;-90
2022/03/27 07:10:43;;;;;;;32.42;24.85;;;7.90;73.90;;;;;;5035414;28;20048;-90
2022/03/27 07:13:12;;;;;;;37.35;25.52;;;7.90;74.00;;;;;;5031950;28;20438;-91
2022/03/27 07:15:40;;;;;;;33.00;23.75;;;8.00;74.10;;;;;;5035459;28;20579;-89
2022/03/27 07:18:09;;;;;;;34.45;25.58;;;8.00;74.20;;;;;;5017209;28;20053;-90
2022/03/27 07:20:41;;;;;;;34.45;25.05;;;8.10;74.20;;;;;;5034759;28;20053;-89
2022/03/27 07:23:10;;;;;;;34.22;25.88;;;8.10;74.30;;;;;;5034756;28;20049;-88
2022/03/27 07:25:39;;;;;;;35.40;25.27;;;8.10;74.30;;;;;;5033534;28;20102;-90
2022/03/27 07:28:08;;;;;;;33.78;24.33;;;8.20;74.40;;;;;;5033638;28;20436;-90
2022/03/27 07:30:36;;;;;;;37.67;25.77;;;8.20;74.50;;;;;;5017286;28;20049;-90
2022/03/27 07:33:04;;;;;;;32.22;24.25;;;8.30;74.50;;;;;;5049874;28;20060;-90
2022/03/27 07:35:31;;;;;;;35.65;26.05;;;8.40;74.60;;;;;;5049873;28;20056;-89
2022/03/27 07:37:59;;;;;;;34.10;25.17;;;8.40;74.70;;;;;;5018509;28;20425;-89
2022/03/27 07:40:30;;;;;;;34.17;25.17;;;8.40;74.80;;;;;;5033321;28;20056;-90
2022/03/27 07:42:57;;;;;;;35.72;24.80;;;8.40;74.80;;;;;;5013716;28;20410;-88
2022/03/27 07:45:30;;;;;;;32.25;24.67;;;8.50;74.90;;;;;;5035827;28;20049;-90
2022/03/27 07:47:57;;;;;;;31.15;23.63;;;8.60;75.00;;;;;;5016624;28;20049;-89
2022/03/27 07:50:27;;;;;;;31.05;24.10;;;8.60;75.10;;;;;;5034262;28;20390;-90
2022/03/27 07:52:54;;;;;;;34.63;23.88;;;8.70;75.20;;;;;;5034138;28;20052;-91
2022/03/27 07:55:22;;;;;;;30.85;23.65;;;8.80;75.30;;;;;;5015759;28;20049;-90
2022/03/27 07:57:55;;;;;;;29.77;23.88;;;8.90;75.40;;;;;;5016210;28;20502;-91
2022/03/27 08:00:23;;;;;;;29.58;23.25;;;8.90;75.40;;;;;;5016357;28;20060;-90
2022/03/27 08:02:51;;;;;;;34.00;24.30;;;9.00;75.50;;;;;;5016573;28;20049;-91
2022/03/27 08:05:21;;;;;;;31.55;24.52;;;9.10;75.50;;;;;;5033795;28;20080;-91
2022/03/27 08:07:49;;;;;;;31.75;24.30;;;9.10;75.60;;;;;;5018269;28;20053;-89
2022/03/27 08:10:16;;;;;;;31.27;23.75;;;9.20;75.60;;;;;;5015760;28;20057;-91
2022/03/27 08:12:43;;;;;;;30.92;22.70;;;9.30;75.60;;;;;;5017594;28;20061;-92
2022/03/27 08:15:11;;;;;;;34.33;24.00;;;9.40;75.70;;;;;;5016092;28;20513;-91
2022/03/27 08:17:38;;;;;;;35.10;24.48;;;9.40;75.70;;;;;;5017847;28;20509;-90
2022/03/27 08:20:05;;;;;;;34.15;24.48;;;9.50;75.70;;;;;;5016471;28;20048;-91
2022/03/27 08:22:33;;;;;;;27.55;23.08;;;9.60;75.70;;;;;;5033814;28;20107;-93
2022/03/27 08:25:00;;;;;;;33.20;23.52;;;9.70;75.70;;;;;;5033051;28;20087;-91
2022/03/27 08:27:31;;;;;;;33.33;24.65;;;9.70;75.70;;;;;;5016206;28;20038;-92
2022/03/27 08:29:59;;;;;;;31.05;24.15;;;9.80;75.70;;;;;;5035489;28;20041;-91
2022/03/27 08:32:26;;;;;;;32.45;24.10;;;9.90;75.60;;;;;;5033490;28;20108;-93
2022/03/27 08:34:53;;;;;;;29.80;23.50;;;10.00;75.60;;;;;;5033948;28;20041;-92
2022/03/27 08:37:20;;;;;;;31.88;24.30;;;10.00;75.50;;;;;;5032926;28;20468;-92
2022/03/27 08:39:47;;;;;;;32.30;22.40;;;10.20;75.40;;;;;;5016667;28;20045;-93
2022/03/27 08:42:16;;;;;;;32.15;23.60;;;10.20;75.40;;;;;;5034377;28;20050;-92
2022/03/27 08:44:44;;;;;;;31.45;23.63;;;10.30;75.30;;;;;;5033912;28;20041;-94
2022/03/27 08:47:27;;;;;;;32.55;24.10;;;10.40;75.30;;;;;;5034000;28;20049;-92
2022/03/27 08:49:59;;;;;;;39.83;27.52;;;10.50;75.20;;;;;;5001935;28;20053;-91
2022/03/27 08:52:49;;;;;;;36.05;24.65;;;10.50;75.10;;;;;;5032850;28;20057;-90
2022/03/27 08:55:22;;;;;;;35.60;25.10;;;10.60;74.90;;;;;;5011077;28;20502;-92
2022/03/27 08:57:56;;;;;;;32.87;24.17;;;10.70;74.80;;;;;;5015591;28;20112;-90
2022/03/27 09:00:27;;;;;;;37.05;24.50;;;10.80;74.80;;;;;;5035313;28;20108;-92
2022/03/27 09:02:56;;;;;;;33.63;24.05;;;10.90;74.60;;;;;;5018550;28;20046;-92
2022/03/27 09:05:24;;;;;;;34.47;23.08;;;11.00;74.50;;;;;;5032925;28;20084;-91
2022/03/27 09:07:53;;;;;;;32.88;24.55;;;11.00;74.40;;;;;;5033601;28;20052;-90
2022/03/27 09:10:21;;;;;;;31.63;24.45;;;11.10;74.30;;;;;;5032212;28;20041;-90
2022/03/27 09:12:51;;;;;;;29.40;22.92;;;11.20;74.20;;;;;;5032051;28;20049;-92
2022/03/27 09:15:19;;;;;;;31.35;22.77;;;11.20;74.00;;;;;;5033305;28;20409;-91
2022/03/27 09:18:01;;;;;;;30.98;23.45;;;11.40;73.90;;;;;;5033277;28;20124;-92
2022/03/27 09:20:44;;;;;;;31.30;23.45;;;11.40;73.80;;;;;;5035240;28;20053;-91
2022/03/27 09:23:21;;;;;;;30.17;21.77;;;11.50;73.70;;;;;;5032282;28;20038;-92
2022/03/27 09:25:51;;;;;;;32.92;22.45;;;11.60;73.60;;;;;;5019681;28;20471;-93
2022/03/27 09:28:27;;;;;;;29.45;21.35;;;11.70;73.40;;;;;;5032377;28;20076;-92
2022/03/27 09:30:54;;;;;;;29.25;21.58;;;11.80;73.30;;;;;;5012789;28;20053;-91
2022/03/27 09:33:36;;;;;;;29.67;22.80;;;11.90;73.20;;;;;;5033230;28;20042;-91
2022/03/27 09:36:11;;;;;;;31.83;22.20;;;12.00;73.00;;;;;;5035687;28;20466;-90
2022/03/27 09:38:39;;;;;;;29.27;22.05;;;12.10;72.90;;;;;;5032249;28;20058;-92
2022/03/27 09:41:27;;;;;;;28.45;22.10;;;12.20;72.70;;;;;;5034934;28;20472;-92
2022/03/27 09:44:03;;;;;;;28.50;21.60;;;12.20;72.60;;;;;;5033592;28;20502;-92
2022/03/27 09:46:49;;;;;;;27.98;21.90;;;12.40;72.40;;;;;;5031369;28;20088;-92
2022/03/27 09:49:18;;;;;;;28.45;20.88;;;12.50;72.20;;;;;;5028937;28;20053;-92
2022/03/27 09:52:00;;;;;;;25.85;21.50;;;12.50;72.10;;;;;;5033432;28;20076;-92
2022/03/27 09:54:39;;;;;;;27.70;20.15;;;12.70;72.00;;;;;;5014920;28;20501;-92
2022/03/27 09:57:35;;;;;;;27.63;20.98;;;12.80;71.80;;;;;;5016289;28;20057;-91
2022/03/27 10:00:20;;;;;;;26.67;20.95;;;12.90;71.70;;;;;;5032387;28;20128;-90
2022/03/27 10:02:49;;;;;;;26.27;19.80;;;13.00;71.50;;;;;;5020083;28;20057;-91
2022/03/27 10:05:21;;;;;;;26.05;20.15;;;13.10;71.40;;;;;;4995861;28;20458;-91
2022/03/27 10:07:54;;;;;;;28.48;20.05;;;13.20;71.30;;;;;;5015646;28;20048;-92
2022/03/27 10:10:26;;;;;;;27.88;19.23;;;13.40;71.20;;;;;;5032421;28;20132;-92
2022/03/27 10:12:58;;;;;;;25.95;19.45;;;13.50;71.00;;;;;;5030036;28;20075;-92
2022/03/27 10:15:27;;;;;;;26.15;20.30;;;13.60;70.90;;;;;;5032845;28;20056;-92
2022/03/27 10:18:06;;;;;;;25.55;19.25;;;13.70;70.70;;;;;;5032875;28;20079;-92
2022/03/27 10:20:38;;;;;;;27.95;19.48;;;13.80;70.50;;;;;;5032965;28;20571;-94
2022/03/27 10:23:09;;;;;;;25.75;19.23;;;13.90;70.20;;;;;;5017643;28;20300;-92
2022/03/27 10:25:44;;;;;;;26.92;19.52;;;14.00;69.90;;;;;;5036727;28;20083;-93
2022/03/27 10:28:13;;;;;;;24.05;18.67;;;14.10;69.60;;;;;;5032173;28;20493;-94
2022/03/27 10:30:41;;;;;;;23.92;19.48;;;14.30;69.40;;;;;;5020959;28;20509;-93
2022/03/27 10:33:10;;;;;;;22.60;19.20;;;14.40;69.10;;;;;;5035681;28;20510;-93
2022/03/27 10:35:47;;;;;;;25.75;19.58;;;14.50;68.90;;;;;;5036538;28;20045;-91
2022/03/27 10:38:37;;;;;;;24.42;20.02;;;14.60;68.60;;;;;;5039295;28;20563;-92
2022/03/27 10:41:13;;;;;;;25.98;20.13;;;14.70;68.40;;;;;;5018135;28;20046;-91
2022/03/27 10:44:18;;;;;;;24.15;19.65;;;14.80;68.10;;;;;;5036729;28;20060;-93
2022/03/27 10:47:12;;;;;;;28.67;20.40;;;14.90;67.80;;;;;;5023655;28;20056;-93
2022/03/27 10:49:39;;;;;;;26.75;21.48;;;15.00;67.50;;;;;;5038574;28;20049;-93
2022/03/27 10:52:08;;;;;;;26.20;20.95;;;15.00;67.30;;;;;;5018604;28;20057;-93
2022/03/27 10:54:57;;;;;;;26.00;20.52;;;15.10;67.10;;;;;;5018800;28;20054;-92
2022/03/27 10:57:34;;;;;;;25.67;20.13;;;15.20;66.90;;;;;;5035004;28;20069;-94
2022/03/27 11:00:04;;;;;;;26.45;20.13;;;15.30;66.70;;;;;;5018344;28;20049;-93
2022/03/27 11:02:50;;;;;;;23.30;19.20;;;15.40;66.50;;;;;;5028195;28;20057;-93
2022/03/27 11:05:55;;;;;;;28.95;20.30;;;15.40;66.30;;;;;;5038324;28;20562;-91
2022/03/27 11:08:23;;;;;;;25.08;19.60;;;15.50;66.20;;;;;;5023624;28;20049;-92
2022/03/27 11:10:59;;;;;;;29.08;20.70;;;15.60;66.00;;;;;;5051697;28;20464;-90
2022/03/27 11:13:30;;;;;;;27.17;21.60;;;15.60;65.90;;;;;;5035332;28;20497;-91
2022/03/27 11:16:11;;;;;;;28.13;21.90;;;15.70;65.70;;;;;;4997899;28;20103;-93
2022/03/27 11:18:41;;;;;;;26.73;21.27;;;15.80;65.60;;;;;;5034334;28;20608;-92
2022/03/27 11:21:10;;;;;;;25.42;20.55;;;15.90;65.40;;;;;;5018977;28;20054;-94
2022/03/27 11:23:39;;;;;;;24.13;20.35;;;15.90;65.20;;;;;;5038131;28;20053;-94
2022/03/27 11:26:21;;;;;;;27.23;21.83;;;15.90;65.10;;;;;;5017270;28;20407;-91
2022/03/27 11:28:54;;;;;;;25.40;20.00;;;16.00;64.90;;;;;;5019963;28;20041;-89
2022/03/27 11:31:23;;;;;;;27.23;20.55;;;16.00;64.80;;;;;;5033048;28;20049;-91
2022/03/27 11:34:08;;;;;;;31.30;22.42;;;16.10;64.70;;;;;;5035024;28;20050;-90
2022/03/27 11:36:36;;;;;;;27.90;21.65;;;16.10;64.60;;;;;;5036988;28;20425;-90
2022/03/27 11:39:12;;;;;;;27.90;21.13;;;16.20;64.40;;;;;;5034438;28;20056;-91
2022/03/27 11:41:45;;;;;;;26.30;20.92;;;16.20;64.40;;;;;;5033029;28;20422;-91
2022/03/27 11:45:06;;;;;;;35.33;21.42;;;16.30;64.30;;;;;;5017242;28;20099;-92
2022/03/27 11:47:23;;;;;;;28.17;22.33;;;16.40;64.10;;;;;;5022549;28;20064;-91
2022/03/27 11:49:51;;;;;;;27.08;20.25;;;16.40;63.90;;;;;;5003675;28;20064;-92
2022/03/27 11:52:21;;;;;;;30.52;22.45;;;16.40;63.80;;;;;;5033667;28;20065;-90
2022/03/27 11:55:12;;;;;;;25.67;21.08;;;16.50;63.70;;;;;;5035394;28;20054;-90
2022/03/27 11:57:44;;;;;;;27.60;21.40;;;16.60;63.60;;;;;;5034253;28;20559;-90
2022/03/27 12:00:13;;;;;;;34.72;22.58;;;16.60;63.40;;;;;;5034397;28;20045;-90
2022/03/27 12:02:45;;;;;;;30.10;21.08;;;16.70;63.40;;;;;;5034067;28;20045;-90
2022/03/27 12:05:13;;;;;;;28.52;22.55;;;16.70;63.20;;;;;;5033893;28;20158;-90
2022/03/27 12:07:56;;;;;;;29.05;22.33;;;16.80;63.10;;;;;;5016879;28;20052;-91
2022/03/27 12:10:24;;;;;;;28.27;22.85;;;16.80;62.90;;;;;;5030915;28;20061;-90
2022/03/27 12:13:04;;;;;;;27.90;20.80;;;16.90;62.70;;;;;;5033824;28;20103;-90
2022/03/27 12:15:52;;;;;;;29.08;22.30;;;16.90;62.60;;;;;;5034189;28;20116;-90
2022/03/27 12:18:34;;;;;;;27.63;22.10;;;16.90;62.50;;;;;;5033573;28;20506;-90
2022/03/27 12:21:07;;;;;;;31.48;23.75;;;17.00;62.30;;;;;;5016583;28;20120;-92
2022/03/27 12:23:37;;;;;;;28.33;22.00;;;17.00;62.20;;;;;;5033882;28;20061;-91
2022/03/27 12:29:40;;;;;;;30.17;21.73;;;17.10;62.10;;;;;;5033887;28;20045;-91
2022/03/27 12:32:08;;;;;;;27.17;22.55;;;17.20;61.80;;;;;;5025138;28;20119;-90
2022/03/27 12:34:44;;;;;;;31.10;24.75;;;17.20;61.70;;;;;;5032576;28;20199;-90
2022/03/27 12:37:16;;;;;;;30.13;21.80;;;17.30;61.60;;;;;;5032571;28;20053;-91
2022/03/27 12:39:49;;;;;;;28.90;22.60;;;17.30;61.40;;;;;;5032826;28;20059;-91
2022/03/27 12:42:37;;;;;;;28.90;23.17;;;17.40;61.30;;;;;;5033473;28;20049;-90
2022/03/27 12:45:17;;;;;;;30.85;22.05;;;17.40;61.20;;;;;;5017927;28;20050;-91
2022/03/27 12:47:48;;;;;;;31.25;22.45;;;17.40;61.10;;;;;;5015453;28;20081;-90
2022/03/27 12:50:27;;;;;;;29.75;22.05;;;17.50;61.00;;;;;;5033405;28;20041;-90
2022/03/27 12:53:00;;;;;;;29.88;21.77;;;17.60;60.90;;;;;;5018906;28;20065;-90
2022/03/27 12:55:46;;;;;;;27.23;22.25;;;17.60;60.80;;;;;;5032398;28;20061;-90
2022/03/27 12:58:16;;;;;;;34.42;22.60;;;17.60;60.70;;;;;;5028549;28;20402;-90
2022/03/27 13:00:45;;;;;;;29.73;22.73;;;17.70;60.60;;;;;;5032794;28;20111;-90